Terminal Aerodrome Forecast
Issued by NWS

Home | Current Version | Previous Version | Text Only | Print | Product List | Glossary On
Versions: 1 2 3 4 5 6 7 8 9 10 11 12 13 14 15 16
000
FTUS45 KVEF 230200 AAA
TAFHND
TAF AMD
KHND 230248Z 2303/2324 22011G18KT P6SM FEW250
     FM230600 24006KT P6SM SCT250
     FM230800 34014G22KT P6SM SCT250
     FM232000 01012G20KT P6SM SCT250=

USA.gov is the U.S. government's official web portal to all federal, state and local government web resources and services.